Hauptseite
METAR-TAF:

METAR-TAF

Flughäfen :

Flughafen Klagenfurt

Klagenfurt, Österreich

Breite: 46-39N, Länge: 014-20E, Höhe: 448 m

Beobachtung

Neuester Wetterbericht von vor 20 Minuten, um 18:50 UTC
Wind 3 kt aus Nordwest
Temperatur 11°C
Luftfeuchtigkeit 62%
Luftdruck 1025 hPa
Sichtweite 10 km oder mehr

METAR: LOWK 231850Z AUTO 32003KT 9999 NSC 11/04 Q1025 NOSIG

Zeit: 20:10 (19:10 UTC)

Prognose

Neuester Wetterbericht von vor 1 Stunde und 55 Minuten, um 17:15 UTC
Gültige Prognose vom 23 um 18 UTC bis 24 um 18 UTC
Wind 2 kt aus unterschiedlichen Richtungen
Sichtweite 10 km oder mehr
keine Wolken unter 1500 m und keine Kumulonimbus oder Gewitterwolken

TAF: LOWK 231715Z 2318/2418 VRB02KT CAVOK TX21/2415Z TN03/2405Z

Wetterbeobachtungen und Prognosen von mehr als 4000 Flughäfen (METAR und TAF Bericht).

Die verfügbaren Stationen werden durch gelbe und rote Markierungen auf der Karte dargestellt.

Führen Sie die Maus auf sie, um den Namen der Station zu sehen.

Darauf klicken, um die Beobachtung von Wetterbeobachtungen und Prognosen zu sehen.

Um die Karte zu ändern : klicken Sie auf den grünen Tasten mit einem schwarzen Kreuz Zum Vergrößern, auf den grünen Button mit einem Gedankenstrich zu verkleinern, oder auf die grünen Pfeile für benachbarte Karten.


METAR-TAF: